Time;durP1;ratioP1;P1;durP2;ratioP2;P2;SDS_P1;SDS_P2;PMS_P1;PMS_P2;Temp;Humidity;BMP_temperature;BMP_pressure;BME280_temperature;BME280_humidity;BME280_pressure;Samples;Min_cycle;Max_cycle;Signal;HPM_P1;HPM_P2
2021/12/17 00:01:09;;;;;;;45.03;15.27;;;6.00;99.90;;;;;;6130675;23;20013;-75
2021/12/17 00:03:44;;;;;;;42.08;13.45;;;5.90;99.90;;;;;;6156181;23;20010;-75
2021/12/17 00:06:30;;;;;;;29.52;13.10;;;5.90;99.90;;;;;;6157359;23;20009;-76
2021/12/17 00:08:58;;;;;;;44.03;14.32;;;5.90;99.90;;;;;;6155956;23;20320;-75
2021/12/17 00:11:25;;;;;;;41.17;13.20;;;5.80;99.90;;;;;;6157333;23;20009;-75
2021/12/17 00:13:54;;;;;;;39.55;12.98;;;5.80;99.90;;;;;;6157826;23;20005;-75
2021/12/17 00:16:25;;;;;;;35.40;12.88;;;5.80;99.90;;;;;;6155928;23;20014;-75
2021/12/17 00:49:19;;;;;;;31.15;10.88;;;5.60;99.90;;;;;;6129116;23;20014;-76
2021/12/17 00:54:28;;;;;;;24.75;10.35;;;5.60;99.90;;;;;;6157048;23;20076;-75
2021/12/17 00:56:56;;;;;;;30.98;10.82;;;5.60;99.90;;;;;;6157005;23;20013;-75
2021/12/17 00:59:24;;;;;;;25.65;10.43;;;5.60;99.90;;;;;;6157118;23;20454;-75
2021/12/17 01:01:54;;;;;;;30.67;11.40;;;5.60;99.90;;;;;;6155360;23;20010;-75
2021/12/17 01:04:21;;;;;;;43.42;11.20;;;5.60;99.90;;;;;;6157402;23;20432;-75
2021/12/17 01:06:47;;;;;;;23.65;9.15;;;5.60;99.90;;;;;;6156610;23;20013;-75
2021/12/17 01:09:17;;;;;;;25.83;9.55;;;5.60;99.90;;;;;;6155338;23;20099;-75
2021/12/17 01:11:45;;;;;;;33.67;10.95;;;5.60;99.90;;;;;;6155159;23;20068;-75
2021/12/17 01:14:32;;;;;;;29.73;10.68;;;5.60;99.90;;;;;;6157320;23;20020;-75
2021/12/17 01:17:33;;;;;;;28.80;9.88;;;5.60;99.90;;;;;;6067736;23;20019;-75
2021/12/17 01:20:48;;;;;;;22.02;8.50;;;5.60;99.90;;;;;;6067274;23;20313;-75
2021/12/17 01:35:21;;;;;;;24.27;7.97;;;5.50;99.90;;;;;;6053816;23;20026;-75
2021/12/17 01:40:58;;;;;;;;;;;5.40;99.90;;;;;;6067745;23;20038;-75
2021/12/17 01:43:30;;;;;;;17.30;7.45;;;5.40;99.90;;;;;;6067135;23;19920;-76
2021/12/17 01:45:58;;;;;;;20.83;7.40;;;5.40;99.90;;;;;;6066507;23;20065;-75
2021/12/17 01:48:33;;;;;;;23.73;8.68;;;5.40;99.90;;;;;;6066568;23;20008;-75
2021/12/17 01:56:49;;;;;;;21.75;8.43;;;5.40;99.90;;;;;;6156539;23;20080;-75
2021/12/17 01:59:21;;;;;;;20.70;7.72;;;5.40;99.90;;;;;;6155034;23;20017;-76
2021/12/17 02:01:50;;;;;;;22.50;8.48;;;5.40;99.90;;;;;;6156084;23;20058;-75
2021/12/17 02:04:17;;;;;;;18.60;8.93;;;5.40;99.90;;;;;;6154861;23;20458;-75
2021/12/17 02:06:45;;;;;;;23.10;8.73;;;5.40;99.90;;;;;;6155908;23;20468;-75
2021/12/17 02:10:09;;;;;;;25.67;8.98;;;5.40;99.90;;;;;;6156441;23;20149;-75
2021/12/17 02:32:00;;;;;;;21.77;8.23;;;5.30;99.90;;;;;;6154727;23;20018;-76
2021/12/17 02:37:05;;;;;;;19.42;7.53;;;5.30;99.90;;;;;;6154661;23;20013;-75
2021/12/17 02:45:31;;;;;;;19.73;7.80;;;5.20;99.90;;;;;;6156089;23;20093;-75
2021/12/17 02:45:35;;;;;;;18.50;6.80;;;5.20;99.90;;;;;;6154641;23;20339;-75
2021/12/17 02:48:14;;;;;;;22.58;6.53;;;5.20;99.90;;;;;;6156297;23;20009;-76
2021/12/17 02:50:44;;;;;;;20.13;7.53;;;5.20;99.90;;;;;;6156221;23;20032;-75
2021/12/17 02:53:12;;;;;;;24.88;7.82;;;5.20;99.90;;;;;;6153975;23;20010;-75
2021/12/17 02:55:42;;;;;;;17.90;6.40;;;5.20;99.90;;;;;;6156379;23;20323;-75
2021/12/17 02:58:09;;;;;;;18.95;6.63;;;5.20;99.90;;;;;;6156052;23;20025;-75
2021/12/17 03:00:41;;;;;;;14.57;5.82;;;5.20;99.90;;;;;;6156079;23;20048;-75
2021/12/17 03:03:11;;;;;;;22.05;6.95;;;5.20;99.90;;;;;;6156068;23;20016;-75
2021/12/17 03:05:40;;;;;;;21.98;5.82;;;5.20;99.90;;;;;;6156086;23;20009;-75
2021/12/17 03:08:12;;;;;;;18.85;7.25;;;5.20;99.90;;;;;;6155868;23;20014;-75
2021/12/17 03:10:39;;;;;;;17.58;6.95;;;5.20;99.90;;;;;;6156106;23;20009;-76
2021/12/17 03:13:06;;;;;;;16.33;6.68;;;5.20;99.90;;;;;;6154406;23;20424;-76
2021/12/17 03:15:39;;;;;;;18.45;6.93;;;5.20;99.90;;;;;;6155989;23;20051;-75
2021/12/17 03:23:31;;;;;;;19.88;5.70;;;5.10;99.90;;;;;;6156181;23;20009;-76
2021/12/17 03:26:04;;;;;;;20.73;6.68;;;5.10;99.90;;;;;;6155953;23;20028;-75
2021/12/17 03:28:32;;;;;;;20.05;7.05;;;5.10;99.90;;;;;;6156100;23;20037;-76
2021/12/17 03:31:00;;;;;;;17.67;6.40;;;5.10;99.90;;;;;;6155943;23;20002;-75
2021/12/17 03:33:28;;;;;;;17.42;6.30;;;5.10;99.90;;;;;;6154356;23;20509;-75
2021/12/17 03:35:55;;;;;;;18.45;6.18;;;5.00;99.90;;;;;;6156942;23;20048;-76
2021/12/17 03:38:22;;;;;;;14.93;5.45;;;5.00;99.90;;;;;;6157697;23;20017;-75
2021/12/17 03:40:52;;;;;;;13.95;5.05;;;5.00;99.90;;;;;;6156257;23;20004;-75
2021/12/17 03:43:38;;;;;;;13.82;5.35;;;5.00;99.90;;;;;;6157815;23;20013;-75
2021/12/17 03:46:05;;;;;;;18.73;6.43;;;5.00;99.90;;;;;;6157835;23;20064;-75
2021/12/17 03:48:37;;;;;;;13.98;5.60;;;5.00;99.90;;;;;;6157709;23;20435;-75
2021/12/17 03:51:11;;;;;;;17.02;5.32;;;5.00;99.90;;;;;;6155555;23;20013;-75
2021/12/17 03:53:41;;;;;;;16.10;5.28;;;5.00;99.90;;;;;;6156838;23;20013;-75
2021/12/17 03:56:10;;;;;;;16.30;5.82;;;4.90;99.90;;;;;;6157290;23;20028;-75
2021/12/17 03:58:38;;;;;;;18.38;6.03;;;4.90;99.90;;;;;;6157726;23;20379;-76
2021/12/17 04:01:05;;;;;;;14.07;5.50;;;4.90;99.90;;;;;;6155916;23;20354;-75
2021/12/17 04:03:33;;;;;;;15.85;5.57;;;4.90;99.90;;;;;;6156071;23;20005;-75
2021/12/17 04:06:06;;;;;;;14.65;5.40;;;4.90;99.90;;;;;;6157611;23;20358;-76
2021/12/17 04:08:55;;;;;;;16.48;4.78;;;5.00;99.90;;;;;;6157363;23;20387;-76
2021/12/17 04:11:33;;;;;;;12.18;5.38;;;5.00;99.90;;;;;;6157557;23;20009;-75
2021/12/17 04:14:04;;;;;;;15.48;5.18;;;5.00;99.90;;;;;;6157513;23;20457;-76
2021/12/17 04:16:45;;;;;;;13.05;5.18;;;5.00;99.90;;;;;;6157474;23;20339;-75
2021/12/17 04:19:13;;;;;;;11.52;4.07;;;5.00;99.90;;;;;;6157499;23;20010;-76
2021/12/17 04:21:41;;;;;;;9.95;4.75;;;5.00;99.90;;;;;;6157369;23;20013;-75
2021/12/17 04:24:09;;;;;;;12.32;4.03;;;5.10;99.90;;;;;;6155924;23;20005;-75
2021/12/17 04:26:35;;;;;;;11.27;3.70;;;5.00;99.90;;;;;;6157414;23;20001;-75
2021/12/17 04:29:12;;;;;;;10.68;4.28;;;5.10;99.90;;;;;;6157484;23;20061;-75
2021/12/17 04:31:40;;;;;;;9.00;3.53;;;5.00;99.90;;;;;;6157338;23;20009;-75
2021/12/17 04:34:08;;;;;;;10.15;3.70;;;5.10;99.90;;;;;;6157390;23;20431;-75
2021/12/17 04:36:37;;;;;;;9.32;4.13;;;5.10;99.90;;;;;;6157596;23;20006;-75
2021/12/17 04:39:13;;;;;;;9.43;4.30;;;5.00;99.90;;;;;;6157567;23;20065;-75
2021/12/17 04:44:21;;;;;;;10.02;3.97;;;5.10;99.90;;;;;;6157084;23;20063;-75
2021/12/17 04:57:12;;;;;;;8.95;3.83;;;5.00;99.90;;;;;;6157338;23;20128;-76
2021/12/17 04:57:46;;;;;;;17.02;4.57;;;5.10;99.90;;;;;;6157398;23;20017;-75
2021/12/17 05:00:19;;;;;;;12.43;4.00;;;5.00;99.90;;;;;;6157046;23;20009;-75
2021/12/17 05:02:56;;;;;;;12.15;3.63;;;5.00;99.90;;;;;;6155967;23;20132;-76
2021/12/17 05:05:30;;;;;;;9.82;3.80;;;5.00;99.90;;;;;;6157411;23;20095;-75
2021/12/17 05:08:10;;;;;;;10.18;3.92;;;5.00;99.90;;;;;;6155087;23;20021;-75
2021/12/17 05:21:26;;;;;;;15.93;4.15;;;5.10;99.90;;;;;;6125923;23;20045;-76
2021/12/17 05:23:54;;;;;;;7.55;4.00;;;5.10;99.90;;;;;;6156881;23;20020;-76
2021/12/17 05:26:23;;;;;;;7.97;3.35;;;5.10;99.90;;;;;;6155458;23;20010;-76
2021/12/17 05:28:56;;;;;;;11.93;4.18;;;5.10;99.90;;;;;;6157053;23;20130;-76
2021/12/17 05:31:27;;;;;;;7.35;2.95;;;5.10;99.90;;;;;;6156675;23;20009;-76
2021/12/17 05:33:56;;;;;;;7.28;3.20;;;5.30;99.90;;;;;;6156663;23;20013;-76
2021/12/17 05:36:28;;;;;;;11.25;3.63;;;5.30;99.90;;;;;;6156617;23;20012;-75
2021/12/17 05:39:05;;;;;;;5.90;2.97;;;5.40;99.90;;;;;;6156882;23;20342;-75
2021/12/17 05:41:36;;;;;;;10.65;3.42;;;5.40;99.90;;;;;;6156470;23;20062;-75
2021/12/17 05:44:27;;;;;;;10.38;3.20;;;5.40;99.90;;;;;;6156708;23;20039;-75
2021/12/17 05:46:55;;;;;;;5.88;2.63;;;5.40;99.90;;;;;;6157006;23;20361;-75
2021/12/17 05:49:26;;;;;;;14.00;3.83;;;5.30;99.90;;;;;;6156665;23;20013;-75
2021/12/17 05:51:56;;;;;;;8.18;3.40;;;5.40;99.90;;;;;;6156825;23;20036;-75
2021/12/17 05:54:24;;;;;;;9.00;3.38;;;5.30;99.90;;;;;;6156517;23;20040;-75
2021/12/17 05:56:52;;;;;;;17.17;3.45;;;5.30;99.90;;;;;;6154875;23;20015;-73
2021/12/17 05:59:21;;;;;;;8.50;3.10;;;5.30;99.90;;;;;;6154551;23;20010;-74
2021/12/17 06:01:49;;;;;;;8.40;3.03;;;5.30;99.90;;;;;;6156248;23;20005;-82
2021/12/17 06:04:18;;;;;;;11.13;3.92;;;5.30;99.90;;;;;;6156888;23;20010;-76
2021/12/17 06:06:57;;;;;;;10.02;3.05;;;5.30;99.90;;;;;;6156484;23;20013;-62
2021/12/17 06:09:25;;;;;;;10.73;3.80;;;5.40;99.90;;;;;;6156417;23;20316;-63
2021/12/17 06:11:53;;;;;;;7.28;3.25;;;5.50;99.90;;;;;;6156234;23;20013;-63
2021/12/17 06:14:23;;;;;;;9.55;3.50;;;5.60;99.90;;;;;;6154829;23;20497;-63
2021/12/17 06:16:50;;;;;;;15.65;3.50;;;5.60;99.90;;;;;;6154759;23;20010;-62
2021/12/17 06:19:31;;;;;;;15.85;3.47;;;5.60;99.90;;;;;;6156425;23;20010;-62
2021/12/17 06:21:59;;;;;;;13.75;4.22;;;5.60;99.90;;;;;;6154795;23;20005;-62
2021/12/17 06:24:27;;;;;;;7.72;3.15;;;5.60;99.90;;;;;;6156297;23;20015;-62
2021/12/17 06:26:55;;;;;;;10.77;3.10;;;5.60;99.90;;;;;;6156582;23;20019;-63
2021/12/17 06:29:21;;;;;;;11.00;3.63;;;5.60;99.90;;;;;;6154653;23;20016;-62
2021/12/17 06:31:55;;;;;;;;;;;5.60;99.90;;;;;;6156717;23;20002;-63
2021/12/17 06:34:22;;;;;;;8.93;3.10;;;5.60;99.90;;;;;;6156207;23;19947;-62
2021/12/17 06:36:49;;;;;;;7.45;2.95;;;5.70;99.90;;;;;;6155853;23;20015;-63
2021/12/17 06:39:16;;;;;;;18.00;3.80;;;5.60;99.90;;;;;;6156217;23;20310;-62
2021/12/17 06:41:45;;;;;;;9.93;3.17;;;5.70;99.90;;;;;;6156150;23;20002;-62
2021/12/17 06:44:15;;;;;;;11.10;3.55;;;5.70;99.90;;;;;;6156180;23;20005;-62
2021/12/17 07:10:42;;;;;;;7.93;3.85;;;6.70;99.90;;;;;;6098980;23;20061;-63
2021/12/17 07:39:54;;;;;;;9.95;3.75;;;7.80;99.90;;;;;;6098903;23;20010;-63
2021/12/17 07:42:25;;;;;;;9.20;3.83;;;7.80;99.90;;;;;;6099394;23;20013;-63
2021/12/17 07:44:54;;;;;;;17.08;3.53;;;7.80;99.90;;;;;;6099283;23;20541;-64
2021/12/17 07:47:21;;;;;;;10.65;4.07;;;7.90;99.90;;;;;;6108312;23;20333;-63
2021/12/17 07:50:08;;;;;;;11.60;3.67;;;7.90;99.90;;;;;;6097882;23;20070;-64
2021/12/17 07:52:45;;;;;;;6.85;3.13;;;8.00;99.90;;;;;;6098538;23;20085;-63
2021/12/17 07:55:12;;;;;;;9.63;3.33;;;8.00;99.90;;;;;;6098811;23;20014;-63
2021/12/17 07:57:38;;;;;;;8.07;2.35;;;8.10;99.90;;;;;;6097146;23;20094;-64
2021/12/17 08:00:07;;;;;;;6.10;2.47;;;8.10;99.90;;;;;;6097327;23;20014;-63
2021/12/17 08:02:42;;;;;;;8.63;3.60;;;8.20;99.90;;;;;;6098894;23;20036;-63
2021/12/17 08:05:27;;;;;;;9.07;3.17;;;8.30;99.90;;;;;;6098907;23;20069;-63
2021/12/17 08:07:54;;;;;;;7.88;2.85;;;8.40;99.90;;;;;;6146975;23;20075;-64
2021/12/17 08:10:24;;;;;;;10.75;3.13;;;8.50;99.90;;;;;;6157546;23;20009;-63
2021/12/17 08:12:54;;;;;;;9.02;2.88;;;8.60;99.90;;;;;;6157563;23;20005;-63
2021/12/17 08:15:33;;;;;;;5.57;3.00;;;8.80;99.90;;;;;;6157404;23;20028;-63
2021/12/17 08:18:30;;;;;;;16.08;3.00;;;8.90;99.90;;;;;;6155940;23;20021;-64
2021/12/17 08:24:31;;;;;;;6.32;2.42;;;9.20;99.90;;;;;;6155637;23;20093;-64
2021/12/17 08:29:54;;;;;;;2.70;1.48;;;9.70;99.90;;;;;;6157423;23;20031;-63
2021/12/17 08:32:22;;;;;;;3.78;1.40;;;10.10;99.90;;;;;;6157562;23;20009;-65
2021/12/17 08:34:55;;;;;;;3.92;1.42;;;10.30;99.90;;;;;;6155819;23;20016;-64
2021/12/17 08:37:22;;;;;;;3.17;1.33;;;10.50;99.90;;;;;;6157248;23;20344;-63
2021/12/17 08:39:52;;;;;;;4.80;1.30;;;10.50;99.90;;;;;;6155525;23;20497;-63
2021/12/17 08:42:37;;;;;;;7.72;1.10;;;10.60;99.90;;;;;;6157588;23;20420;-63
2021/12/17 08:45:08;;;;;;;2.13;1.17;;;10.70;99.90;;;;;;6157281;23;20076;-63
2021/12/17 08:48:04;;;;;;;3.38;1.15;;;10.80;99.90;;;;;;6157154;23;20010;-63
2021/12/17 08:51:04;;;;;;;6.95;1.35;;;11.00;99.90;;;;;;6066866;23;20007;-63
2021/12/17 08:53:31;;;;;;;5.07;1.95;;;11.10;99.90;;;;;;6067171;23;20014;-63
2021/12/17 08:55:57;;;;;;;7.53;2.00;;;11.20;99.90;;;;;;6043289;23;20046;-64
2021/12/17 08:58:24;;;;;;;2.88;1.30;;;11.20;99.90;;;;;;6043111;23;20018;-64
2021/12/17 09:00:52;;;;;;;2.85;1.08;;;11.30;99.90;;;;;;6068003;23;20082;-64
2021/12/17 09:03:24;;;;;;;2.28;1.00;;;11.40;99.90;;;;;;6066939;23;20015;-64
2021/12/17 09:06:02;;;;;;;3.33;0.90;;;11.50;99.90;;;;;;6065486;23;20070;-63
2021/12/17 09:08:37;;;;;;;1.58;1.10;;;11.50;99.90;;;;;;6038949;23;20529;-64
2021/12/17 09:11:05;;;;;;;2.60;1.10;;;11.60;99.90;;;;;;6014380;23;20022;-63
2021/12/17 09:13:48;;;;;;;1.73;1.02;;;11.60;99.90;;;;;;6038383;23;20014;-64
2021/12/17 09:16:14;;;;;;;1.95;1.10;;;11.70;99.90;;;;;;6038385;23;20015;-63
2021/12/17 09:18:42;;;;;;;1.42;0.80;;;11.80;99.90;;;;;;6014403;23;20027;-64
2021/12/17 09:21:34;;;;;;;2.83;1.05;;;11.80;99.90;;;;;;6034096;23;20015;-63
2021/12/17 09:24:08;;;;;;;3.03;1.20;;;11.90;99.90;;;;;;6038535;23;20090;-64
2021/12/17 09:26:55;;;;;;;3.65;0.85;;;11.90;99.90;;;;;;6028496;23;20065;-64
2021/12/17 09:29:28;;;;;;;4.15;1.00;;;12.00;99.90;;;;;;6098307;23;20006;-63
2021/12/17 09:31:55;;;;;;;2.80;1.00;;;12.10;99.90;;;;;;6097927;23;20014;-64
2021/12/17 09:34:22;;;;;;;1.75;0.88;;;12.10;99.90;;;;;;6098013;23;20377;-64
2021/12/17 09:36:52;;;;;;;1.98;0.90;;;12.20;99.90;;;;;;6097917;23;20035;-63
2021/12/17 09:39:19;;;;;;;2.78;1.13;;;12.20;99.90;;;;;;6098217;23;20015;-64
2021/12/17 09:41:50;;;;;;;2.78;0.98;;;12.30;99.90;;;;;;6097826;23;20085;-63
2021/12/17 09:44:18;;;;;;;2.90;0.90;;;12.30;99.90;;;;;;6098550;23;20041;-63
2021/12/17 09:46:47;;;;;;;2.92;1.02;;;12.40;99.90;;;;;;6097907;23;20011;-63
2021/12/17 09:49:17;;;;;;;5.40;1.60;;;12.40;99.90;;;;;;6097771;23;20009;-64
2021/12/17 09:51:45;;;;;;;1.30;0.57;;;12.40;99.90;;;;;;6098196;23;20107;-63
2021/12/17 09:54:15;;;;;;;0.90;0.70;;;12.50;99.90;;;;;;6097788;23;20049;-63
2021/12/17 09:56:43;;;;;;;1.70;0.70;;;12.50;99.90;;;;;;6097755;23;20021;-64
2021/12/17 09:59:11;;;;;;;0.70;0.70;;;12.50;99.90;;;;;;6098115;23;20455;-64
2021/12/17 10:01:51;;;;;;;2.30;0.60;;;12.60;99.90;;;;;;6097657;23;20021;-64
2021/12/17 10:04:27;;;;;;;1.42;0.65;;;12.70;99.90;;;;;;6097723;23;20006;-63
2021/12/17 10:07:31;;;;;;;0.80;0.60;;;12.70;99.90;;;;;;6137132;23;20067;-64
2021/12/17 10:10:01;;;;;;;1.75;0.68;;;12.70;99.90;;;;;;6156290;23;20442;-64
2021/12/17 10:12:31;;;;;;;3.80;1.20;;;12.60;99.90;;;;;;6156405;23;20016;-64
2021/12/17 10:15:08;;;;;;;1.63;0.90;;;12.70;99.90;;;;;;6156451;23;20016;-64
2021/12/17 10:18:02;;;;;;;5.78;1.27;;;12.70;99.90;;;;;;6156227;23;20045;-64
2021/12/17 10:20:34;;;;;;;2.13;1.10;;;12.80;99.90;;;;;;6156793;23;20016;-64
2021/12/17 10:23:25;;;;;;;5.85;1.08;;;12.80;99.90;;;;;;6156179;23;20006;-63
2021/12/17 10:25:53;;;;;;;3.88;0.85;;;12.80;99.90;;;;;;6150357;23;20088;-64
2021/12/17 10:28:20;;;;;;;1.55;1.00;;;12.90;99.90;;;;;;6156623;23;20032;-64
2021/12/17 10:30:50;;;;;;;2.00;0.77;;;12.90;99.90;;;;;;6156522;23;20001;-63
2021/12/17 10:33:20;;;;;;;1.17;0.80;;;12.90;99.90;;;;;;6156280;23;20005;-64
2021/12/17 10:35:51;;;;;;;2.72;0.93;;;12.90;99.90;;;;;;6156276;23;20020;-64
2021/12/17 10:38:23;;;;;;;3.22;1.05;;;12.90;99.90;;;;;;6154800;23;20044;-64
2021/12/17 10:41:04;;;;;;;1.33;0.93;;;12.90;99.90;;;;;;6156175;23;20014;-64
2021/12/17 10:43:36;;;;;;;2.08;1.20;;;12.90;99.90;;;;;;6156175;23;20010;-63
2021/12/17 10:46:21;;;;;;;1.85;1.08;;;12.90;99.90;;;;;;6156564;23;20324;-63
2021/12/17 10:48:53;;;;;;;5.78;1.10;;;12.90;99.90;;;;;;6156130;23;20052;-64
2021/12/17 10:54:28;;;;;;;2.67;0.90;;;12.90;99.90;;;;;;6156112;23;20006;-63
2021/12/17 10:56:56;;;;;;;0.95;0.80;;;12.90;99.90;;;;;;6155978;23;20017;-64
2021/12/17 10:59:25;;;;;;;3.00;0.60;;;13.00;99.90;;;;;;6156538;23;20012;-64
2021/12/17 11:01:58;;;;;;;7.32;1.00;;;13.10;99.90;;;;;;6156415;23;20328;-64
2021/12/17 11:04:34;;;;;;;3.30;1.07;;;13.10;99.90;;;;;;6156175;23;20069;-64
2021/12/17 11:07:02;;;;;;;5.93;0.93;;;13.20;99.90;;;;;;6155643;23;20447;-64
2021/12/17 11:09:50;;;;;;;9.13;0.82;;;13.20;99.90;;;;;;6156488;23;20005;-63
2021/12/17 11:12:41;;;;;;;2.55;0.80;;;13.20;99.90;;;;;;6156451;23;20088;-64
2021/12/17 11:15:30;;;;;;;6.78;0.73;;;13.20;99.90;;;;;;6156225;23;20001;-64
2021/12/17 11:18:03;;;;;;;3.08;0.82;;;13.20;99.90;;;;;;6156524;23;20100;-64
2021/12/17 11:20:30;;;;;;;1.38;1.17;;;13.20;99.90;;;;;;6156049;23;20005;-64
2021/12/17 11:23:05;;;;;;;2.33;0.93;;;13.20;99.90;;;;;;6156147;23;20052;-64
2021/12/17 11:25:33;;;;;;;3.42;0.75;;;13.20;99.90;;;;;;6156099;23;20005;-64
2021/12/17 11:28:01;;;;;;;5.47;0.77;;;13.30;99.90;;;;;;6156383;23;19998;-64
2021/12/17 11:30:30;;;;;;;5.13;1.10;;;13.30;99.90;;;;;;6154707;23;20084;-64
2021/12/17 11:33:01;;;;;;;0.85;0.80;;;13.40;99.90;;;;;;6154934;23;19997;-64
2021/12/17 11:36:02;;;;;;;5.13;0.73;;;13.60;99.90;;;;;;6124082;23;20013;-64
2021/12/17 11:39:09;;;;;;;1.15;0.80;;;13.50;99.90;;;;;;6124153;23;20471;-64
2021/12/17 11:41:41;;;;;;;7.72;1.20;;;13.50;99.90;;;;;;6092163;23;20010;-64
2021/12/17 11:44:09;;;;;;;2.55;0.77;;;13.60;99.90;;;;;;6124446;23;20086;-64
2021/12/17 11:46:36;;;;;;;1.42;0.88;;;13.50;99.90;;;;;;6124037;23;20033;-65
2021/12/17 11:49:09;;;;;;;10.60;1.63;;;13.50;99.90;;;;;;6124109;23;20021;-64
2021/12/17 11:51:38;;;;;;;2.33;1.42;;;13.60;99.90;;;;;;6124044;23;20449;-64
2021/12/17 11:54:05;;;;;;;3.47;1.40;;;13.60;99.90;;;;;;6124157;23;20024;-64
2021/12/17 11:56:52;;;;;;;5.35;1.10;;;13.60;99.90;;;;;;6124837;23;20006;-64
2021/12/17 11:59:28;;;;;;;3.25;1.98;;;13.50;99.90;;;;;;6125621;23;20025;-64
2021/12/17 12:02:16;;;;;;;2.78;1.35;;;13.40;99.90;;;;;;6125739;23;20068;-64
2021/12/17 12:04:48;;;;;;;2.95;1.23;;;13.40;99.90;;;;;;6125749;23;20097;-64
2021/12/17 12:07:28;;;;;;;4.63;1.75;;;13.40;99.90;;;;;;6125586;23;20188;-64
2021/12/17 12:10:11;;;;;;;2.92;1.48;;;13.40;99.90;;;;;;6125707;23;20041;-64
2021/12/17 12:12:49;;;;;;;5.95;1.60;;;13.40;99.90;;;;;;6134898;23;20006;-64
2021/12/17 12:15:22;;;;;;;2.50;1.40;;;13.40;99.90;;;;;;6157489;23;20018;-64
2021/12/17 12:18:09;;;;;;;;;;;13.40;99.90;;;;;;6156320;23;20021;-64
2021/12/17 12:20:51;;;;;;;10.10;1.70;;;13.30;99.90;;;;;;6157460;23;19936;-64
2021/12/17 12:23:37;;;;;;;5.88;1.90;;;13.30;99.90;;;;;;6157752;23;20010;-64
2021/12/17 12:26:04;;;;;;;6.03;1.25;;;13.30;99.90;;;;;;6157781;23;20025;-64
2021/12/17 12:28:46;;;;;;;4.35;1.23;;;13.30;99.90;;;;;;6157787;23;20029;-65
2021/12/17 12:31:31;;;;;;;5.07;1.90;;;13.30;99.90;;;;;;6157213;23;20009;-65
2021/12/17 12:34:07;;;;;;;2.13;1.40;;;13.30;99.90;;;;;;6157785;23;20423;-66
2021/12/17 12:36:54;;;;;;;6.72;1.42;;;13.30;99.90;;;;;;6157867;23;20340;-65
2021/12/17 12:39:23;;;;;;;4.95;1.90;;;13.50;99.90;;;;;;6157311;23;20017;-65
2021/12/17 12:41:55;;;;;;;6.03;1.77;;;13.50;99.90;;;;;;6157563;23;20010;-65
2021/12/17 12:44:44;;;;;;;3.58;1.15;;;13.40;99.90;;;;;;6157605;23;20039;-64
2021/12/17 12:47:20;;;;;;;3.50;1.42;;;13.40;99.90;;;;;;6157018;23;20436;-65
2021/12/17 12:50:11;;;;;;;2.72;1.35;;;13.30;99.90;;;;;;6155692;23;20041;-64
2021/12/17 12:52:45;;;;;;;2.92;1.42;;;13.30;99.90;;;;;;6157094;23;20036;-65
2021/12/17 12:55:27;;;;;;;2.67;1.50;;;13.30;99.90;;;;;;6157155;23;20001;-65
2021/12/17 12:57:59;;;;;;;2.83;1.30;;;13.40;99.90;;;;;;6156915;23;20022;-65
2021/12/17 13:00:48;;;;;;;1.92;0.95;;;13.30;99.90;;;;;;6157000;23;20072;-65
2021/12/17 13:03:19;;;;;;;4.97;2.13;;;13.30;99.90;;;;;;6157198;23;20058;-65
2021/12/17 13:05:49;;;;;;;2.63;1.23;;;13.20;99.90;;;;;;6157337;23;20075;-65
2021/12/17 13:08:19;;;;;;;3.25;1.50;;;13.20;99.90;;;;;;6156579;23;20014;-65
2021/12/17 13:10:50;;;;;;;13.75;1.40;;;13.30;99.90;;;;;;6156912;23;20012;-65
2021/12/17 13:13:31;;;;;;;3.67;1.27;;;13.30;99.90;;;;;;6156866;23;20001;-65
2021/12/17 13:24:07;;;;;;;2.80;1.63;;;13.20;99.90;;;;;;6157277;23;20435;-65
2021/12/17 13:26:35;;;;;;;4.35;1.55;;;13.20;99.90;;;;;;6156651;23;20005;-65
2021/12/17 13:29:05;;;;;;;9.98;2.30;;;13.20;99.90;;;;;;6156860;23;20424;-65
2021/12/17 13:31:32;;;;;;;9.90;2.33;;;13.30;99.90;;;;;;6157190;23;20002;-65
2021/12/17 13:33:59;;;;;;;1.52;1.13;;;13.30;99.90;;;;;;6155214;23;20135;-65
2021/12/17 13:36:26;;;;;;;4.82;1.63;;;13.30;99.90;;;;;;6156579;23;20300;-65
2021/12/17 13:38:59;;;;;;;2.72;1.50;;;13.30;99.90;;;;;;6156666;23;20037;-64
2021/12/17 13:41:41;;;;;;;4.10;1.40;;;13.20;99.90;;;;;;6156655;23;20010;-64
2021/12/17 13:44:28;;;;;;;4.82;1.52;;;13.20;99.90;;;;;;6156640;23;20005;-64
2021/12/17 13:47:27;;;;;;;7.00;2.17;;;13.20;99.90;;;;;;6156300;23;20002;-65
2021/12/17 13:50:19;;;;;;;4.07;1.90;;;13.10;99.90;;;;;;6156425;23;20009;-64
2021/12/17 13:52:55;;;;;;;4.03;1.40;;;13.10;99.90;;;;;;6156644;23;20036;-64
2021/12/17 13:55:27;;;;;;;2.95;1.25;;;13.10;99.90;;;;;;6156956;23;20017;-64
2021/12/17 13:57:56;;;;;;;7.03;1.35;;;13.10;99.90;;;;;;6156501;23;20018;-64
2021/12/17 14:00:36;;;;;;;7.30;2.08;;;13.10;99.90;;;;;;6156343;23;20005;-64
2021/12/17 14:03:04;;;;;;;4.00;1.45;;;13.10;99.90;;;;;;6156535;23;20012;-64
2021/12/17 14:05:51;;;;;;;7.75;2.15;;;13.20;99.90;;;;;;6156407;23;20462;-64
2021/12/17 14:08:20;;;;;;;12.25;2.55;;;13.20;99.90;;;;;;6156207;23;20037;-64
2021/12/17 14:10:50;;;;;;;5.75;2.63;;;13.20;99.90;;;;;;6156716;23;20009;-64
2021/12/17 14:13:22;;;;;;;6.13;2.42;;;13.10;99.90;;;;;;6156411;23;20093;-64
2021/12/17 14:15:51;;;;;;;8.98;2.33;;;13.10;99.90;;;;;;6156294;23;20009;-64
2021/12/17 14:18:21;;;;;;;5.90;2.15;;;13.10;99.90;;;;;;6154514;23;20017;-65
2021/12/17 14:21:03;;;;;;;19.63;4.60;;;13.10;99.90;;;;;;6156292;23;20037;-64
2021/12/17 14:23:31;;;;;;;6.85;2.88;;;13.00;99.90;;;;;;6156225;23;20467;-64
2021/12/17 14:26:00;;;;;;;5.32;3.13;;;13.00;99.90;;;;;;6156296;23;20005;-65
2021/12/17 14:28:40;;;;;;;8.43;3.15;;;13.00;99.90;;;;;;6156713;23;20072;-64
2021/12/17 14:31:16;;;;;;;10.45;3.20;;;12.90;99.90;;;;;;6156385;23;20336;-64
2021/12/17 14:33:52;;;;;;;10.68;2.70;;;12.90;99.90;;;;;;6156326;23;20084;-64
2021/12/17 14:36:36;;;;;;;10.13;3.78;;;12.90;99.90;;;;;;6156193;23;20451;-65
2021/12/17 14:39:20;;;;;;;4.22;2.58;;;12.90;99.90;;;;;;6156190;23;20014;-65
2021/12/17 14:41:54;;;;;;;10.48;4.38;;;13.00;99.90;;;;;;6154876;23;20005;-69
2021/12/17 14:47:19;;;;;;;8.68;5.35;;;13.00;99.90;;;;;;6154619;23;20017;-69
2021/12/17 15:03:41;;;;;;;8.95;3.83;;;12.90;99.90;;;;;;6156412;23;20013;-69
2021/12/17 15:06:13;;;;;;;4.15;2.03;;;12.80;99.90;;;;;;6155871;23;20076;-68
2021/12/17 15:08:41;;;;;;;5.53;1.90;;;12.80;99.90;;;;;;6155960;23;20096;-68
2021/12/17 15:11:23;;;;;;;14.98;3.33;;;12.80;99.90;;;;;;6156417;23;20076;-68
2021/12/17 15:13:51;;;;;;;7.07;3.60;;;12.70;99.90;;;;;;6154284;23;20029;-68
2021/12/17 15:16:17;;;;;;;5.10;2.65;;;12.70;99.90;;;;;;6156339;23;20010;-68
2021/12/17 15:18:44;;;;;;;14.18;4.22;;;12.60;99.90;;;;;;6155966;23;20104;-68
2021/12/17 15:21:10;;;;;;;9.10;4.57;;;12.60;99.90;;;;;;6156360;23;20009;-69
2021/12/17 15:23:37;;;;;;;8.63;3.63;;;12.50;99.90;;;;;;6154950;23;20006;-68
2021/12/17 15:26:06;;;;;;;7.32;3.67;;;12.40;99.90;;;;;;6156236;23;20080;-69
2021/12/17 15:28:36;;;;;;;10.13;4.65;;;12.40;99.90;;;;;;6156077;23;20001;-69
2021/12/17 15:31:06;;;;;;;15.00;4.22;;;12.40;99.90;;;;;;6156955;23;20448;-68
2021/12/17 15:33:36;;;;;;;5.30;2.83;;;12.30;99.90;;;;;;6157948;23;20009;-68
2021/12/17 15:36:04;;;;;;;6.18;2.85;;;12.20;99.90;;;;;;6157878;23;20033;-68
2021/12/17 15:38:30;;;;;;;10.50;4.65;;;12.20;99.90;;;;;;6157724;23;20466;-68
2021/12/17 15:40:57;;;;;;;9.75;2.05;;;12.10;99.90;;;;;;6157667;23;20076;-68
2021/12/17 15:43:24;;;;;;;3.55;1.92;;;12.10;99.90;;;;;;6157845;23;20013;-65
2021/12/17 15:45:53;;;;;;;11.32;3.20;;;12.10;99.90;;;;;;6158133;23;20001;-69
2021/12/17 15:48:23;;;;;;;9.70;2.83;;;12.00;99.90;;;;;;6157799;23;20495;-68
2021/12/17 15:50:49;;;;;;;12.75;3.92;;;12.00;99.90;;;;;;6157698;23;20014;-68
2021/12/17 15:53:16;;;;;;;5.70;2.38;;;11.90;99.90;;;;;;6157653;23;20001;-69
2021/12/17 15:55:43;;;;;;;8.38;3.10;;;11.80;99.90;;;;;;6157651;23;20068;-69
2021/12/17 15:58:11;;;;;;;9.82;3.05;;;11.90;99.90;;;;;;6157557;23;20014;-69
2021/12/17 16:00:38;;;;;;;6.50;3.03;;;11.80;99.90;;;;;;6157739;23;20009;-69
2021/12/17 16:03:07;;;;;;;20.90;4.25;;;11.70;99.90;;;;;;6157614;23;20009;-68
2021/12/17 16:05:35;;;;;;;15.27;3.55;;;11.80;99.90;;;;;;6157456;23;20017;-68
2021/12/17 16:08:04;;;;;;;10.50;3.05;;;11.70;99.90;;;;;;6157296;23;20392;-69
2021/12/17 16:20:59;;;;;;;7.80;2.70;;;11.70;99.90;;;;;;6157270;23;20388;-68
2021/12/17 16:21:44;;;;;;;7.47;3.00;;;11.60;99.90;;;;;;6157714;23;20068;-69
2021/12/17 16:24:15;;;;;;;10.23;2.63;;;11.60;99.90;;;;;;6157794;23;20014;-68
2021/12/17 16:26:41;;;;;;;7.05;2.28;;;11.60;99.90;;;;;;6157421;23;20428;-68
2021/12/17 16:29:10;;;;;;;10.48;3.10;;;11.50;99.90;;;;;;6157444;23;20001;-69
2021/12/17 16:31:36;;;;;;;12.00;2.88;;;11.50;99.90;;;;;;6157424;23;20006;-69
2021/12/17 16:34:06;;;;;;;8.85;2.33;;;11.50;99.90;;;;;;6157445;23;20433;-69
2021/12/17 16:36:35;;;;;;;9.60;3.47;;;11.40;99.90;;;;;;6157101;23;20006;-68
2021/12/17 16:39:06;;;;;;;9.93;3.10;;;11.40;99.90;;;;;;6157267;23;20333;-69